L'image de la webcam se met à jour toutes les 30s.
La jauge météo se met à jour toutes les 10s d'après les données envoyées par la station météo du club.
Les graphiques se mettent à jour toutes les 5min et ne s'affichent que si la station est en ligne
Surfaces en herbe impraticables.
MAJ le 03/12/2021 11h00 DDE
METAR de LFRD (Source NOAA)
LFRD 061200Z AUTO 21013KT 180V240 9999 BKN010 OVC029 08/07 Q1011 TEMPO 20015G25KT 3000 RA

TAF de LFRD (Source NOAA)
TAF LFRD 061100Z 0612/0712 20015G25KT 9999 BKN020 TEMPO 0612/0614 3000 RA BKN005 OVC010 BECMG 0613/0615 28010KT PROB40 TEMPO 0615/0621 27015G35KT 4000 SHRA BKN035TCU BECMG 0703/0706 18010KT BECMG 0706/0709 17020G33KT BKN010 TEMPO 0710/0712 3000 RA BKN008 BKN013
Ayez la webcam en fond d'écran de votre téléphone ou de votre tablette Android avec l'appli du club.